sensor_id;sensor_type;location;lat;lon;timestamp;temperature;humidity
48836;DHT22;62581;47.342;7.908;2023-01-29T00:01:54;1.80;99.90
48836;DHT22;62581;47.342;7.908;2023-01-29T00:04:21;1.80;99.90
48836;DHT22;62581;47.342;7.908;2023-01-29T00:06:48;1.80;99.90
48836;DHT22;62581;47.342;7.908;2023-01-29T00:09:15;1.80;99.90
48836;DHT22;62581;47.342;7.908;2023-01-29T00:11:42;1.80;99.90
48836;DHT22;62581;47.342;7.908;2023-01-29T00:14:09;1.80;99.90
48836;DHT22;62581;47.342;7.908;2023-01-29T00:16:36;1.80;99.90
48836;DHT22;62581;47.342;7.908;2023-01-29T00:19:05;1.80;99.90
48836;DHT22;62581;47.342;7.908;2023-01-29T00:21:32;1.80;99.90
48836;DHT22;62581;47.342;7.908;2023-01-29T00:23:59;1.80;99.90
48836;DHT22;62581;47.342;7.908;2023-01-29T00:26:27;1.80;99.90
48836;DHT22;62581;47.342;7.908;2023-01-29T00:28:54;1.90;99.90
48836;DHT22;62581;47.342;7.908;2023-01-29T00:31:25;1.90;99.90
48836;DHT22;62581;47.342;7.908;2023-01-29T00:33:52;1.90;99.90
48836;DHT22;62581;47.342;7.908;2023-01-29T00:36:21;1.90;99.90
48836;DHT22;62581;47.342;7.908;2023-01-29T00:38:53;1.90;99.90
48836;DHT22;62581;47.342;7.908;2023-01-29T00:41:26;2.00;99.90
48836;DHT22;62581;47.342;7.908;2023-01-29T00:44:10;2.00;99.90
48836;DHT22;62581;47.342;7.908;2023-01-29T00:46:55;2.00;99.90
48836;DHT22;62581;47.342;7.908;2023-01-29T00:49:22;2.00;99.90
48836;DHT22;62581;47.342;7.908;2023-01-29T00:51:50;2.00;99.90
48836;DHT22;62581;47.342;7.908;2023-01-29T00:54:31;2.00;99.90
48836;DHT22;62581;47.342;7.908;2023-01-29T00:56:58;2.00;99.90
48836;DHT22;62581;47.342;7.908;2023-01-29T00:59:25;2.00;99.90
48836;DHT22;62581;47.342;7.908;2023-01-29T01:01:53;2.00;99.90
48836;DHT22;62581;47.342;7.908;2023-01-29T01:04:37;2.10;99.90
48836;DHT22;62581;47.342;7.908;2023-01-29T01:07:06;2.10;99.90
48836;DHT22;62581;47.342;7.908;2023-01-29T01:09:34;2.10;99.90
48836;DHT22;62581;47.342;7.908;2023-01-29T01:12:19;2.10;99.90
48836;DHT22;62581;47.342;7.908;2023-01-29T01:14:46;2.10;99.90
48836;DHT22;62581;47.342;7.908;2023-01-29T01:17:13;2.10;99.90
48836;DHT22;62581;47.342;7.908;2023-01-29T01:19:41;2.10;99.90
48836;DHT22;62581;47.342;7.908;2023-01-29T01:22:09;2.10;99.90
48836;DHT22;62581;47.342;7.908;2023-01-29T01:24:37;2.10;99.90
48836;DHT22;62581;47.342;7.908;2023-01-29T01:27:04;2.10;99.90
48836;DHT22;62581;47.342;7.908;2023-01-29T01:29:31;2.10;99.90
48836;DHT22;62581;47.342;7.908;2023-01-29T01:31:58;2.10;99.90
48836;DHT22;62581;47.342;7.908;2023-01-29T01:34:25;2.10;99.90
48836;DHT22;62581;47.342;7.908;2023-01-29T01:36:52;2.10;99.90
48836;DHT22;62581;47.342;7.908;2023-01-29T01:39:22;2.10;99.90
48836;DHT22;62581;47.342;7.908;2023-01-29T01:41:49;2.10;99.90
48836;DHT22;62581;47.342;7.908;2023-01-29T01:47:02;2.20;99.90
48836;DHT22;62581;47.342;7.908;2023-01-29T01:49:29;2.20;99.90
48836;DHT22;62581;47.342;7.908;2023-01-29T01:51:57;2.10;99.90
48836;DHT22;62581;47.342;7.908;2023-01-29T01:54:29;2.10;99.90
48836;DHT22;62581;47.342;7.908;2023-01-29T01:57:02;2.20;99.90
48836;DHT22;62581;47.342;7.908;2023-01-29T01:59:35;2.10;99.90
48836;DHT22;62581;47.342;7.908;2023-01-29T02:02:04;2.10;99.90
48836;DHT22;62581;47.342;7.908;2023-01-29T02:04:49;2.10;99.90
48836;DHT22;62581;47.342;7.908;2023-01-29T02:07:35;2.10;99.90
48836;DHT22;62581;47.342;7.908;2023-01-29T02:10:26;2.10;99.90
48836;DHT22;62581;47.342;7.908;2023-01-29T02:12:54;2.10;99.90
48836;DHT22;62581;47.342;7.908;2023-01-29T02:15:21;2.10;99.90
48836;DHT22;62581;47.342;7.908;2023-01-29T02:17:49;2.10;99.90
48836;DHT22;62581;47.342;7.908;2023-01-29T02:20:18;2.10;99.90
48836;DHT22;62581;47.342;7.908;2023-01-29T02:23:07;2.10;99.90
48836;DHT22;62581;47.342;7.908;2023-01-29T02:26:15;2.10;99.90
48836;DHT22;62581;47.342;7.908;2023-01-29T02:28:49;2.10;99.90
48836;DHT22;62581;47.342;7.908;2023-01-29T02:31:26;2.10;99.90
48836;DHT22;62581;47.342;7.908;2023-01-29T02:34:05;2.10;99.90
48836;DHT22;62581;47.342;7.908;2023-01-29T02:36:42;2.10;99.90
48836;DHT22;62581;47.342;7.908;2023-01-29T02:39:15;2.10;99.90
48836;DHT22;62581;47.342;7.908;2023-01-29T02:41:47;2.10;99.90
48836;DHT22;62581;47.342;7.908;2023-01-29T02:44:23;2.10;99.90
48836;DHT22;62581;47.342;7.908;2023-01-29T02:46:57;2.10;99.90
48836;DHT22;62581;47.342;7.908;2023-01-29T02:49:31;2.10;99.90
48836;DHT22;62581;47.342;7.908;2023-01-29T02:52:04;2.10;99.90
48836;DHT22;62581;47.342;7.908;2023-01-29T02:54:42;2.10;99.90
48836;DHT22;62581;47.342;7.908;2023-01-29T02:57:15;2.10;99.90
48836;DHT22;62581;47.342;7.908;2023-01-29T02:59:48;2.20;99.90
48836;DHT22;62581;47.342;7.908;2023-01-29T03:02:19;2.10;99.90
48836;DHT22;62581;47.342;7.908;2023-01-29T03:04:52;2.10;99.90
48836;DHT22;62581;47.342;7.908;2023-01-29T03:07:27;2.10;99.90
48836;DHT22;62581;47.342;7.908;2023-01-29T03:10:15;2.10;99.90
48836;DHT22;62581;47.342;7.908;2023-01-29T03:12:43;2.10;99.90
48836;DHT22;62581;47.342;7.908;2023-01-29T03:15:14;2.10;99.90
48836;DHT22;62581;47.342;7.908;2023-01-29T03:17:46;2.10;99.90
48836;DHT22;62581;47.342;7.908;2023-01-29T03:20:19;2.10;99.90
48836;DHT22;62581;47.342;7.908;2023-01-29T03:22:54;2.10;99.90
48836;DHT22;62581;47.342;7.908;2023-01-29T03:25:23;2.10;99.90
48836;DHT22;62581;47.342;7.908;2023-01-29T03:28:11;2.10;99.90
48836;DHT22;62581;47.342;7.908;2023-01-29T03:31:01;2.10;99.90
48836;DHT22;62581;47.342;7.908;2023-01-29T03:33:48;2.10;99.90
48836;DHT22;62581;47.342;7.908;2023-01-29T03:36:18;2.10;99.90
48836;DHT22;62581;47.342;7.908;2023-01-29T03:38:47;2.10;99.90
48836;DHT22;62581;47.342;7.908;2023-01-29T03:41:21;2.10;99.90
48836;DHT22;62581;47.342;7.908;2023-01-29T03:43:54;2.10;99.90
48836;DHT22;62581;47.342;7.908;2023-01-29T03:46:26;2.10;99.90
48836;DHT22;62581;47.342;7.908;2023-01-29T03:49:00;2.10;99.90
48836;DHT22;62581;47.342;7.908;2023-01-29T03:51:33;2.10;99.90
48836;DHT22;62581;47.342;7.908;2023-01-29T03:54:07;2.10;99.90
48836;DHT22;62581;47.342;7.908;2023-01-29T03:56:51;2.10;99.90
48836;DHT22;62581;47.342;7.908;2023-01-29T03:59:30;2.10;99.90
48836;DHT22;62581;47.342;7.908;2023-01-29T04:02:02;2.10;99.90
48836;DHT22;62581;47.342;7.908;2023-01-29T04:04:32;2.10;99.90
48836;DHT22;62581;47.342;7.908;2023-01-29T04:07:04;2.20;99.90
48836;DHT22;62581;47.342;7.908;2023-01-29T04:09:37;2.10;99.90
48836;DHT22;62581;47.342;7.908;2023-01-29T04:12:07;2.10;99.90
48836;DHT22;62581;47.342;7.908;2023-01-29T04:14:35;2.10;99.90
48836;DHT22;62581;47.342;7.908;2023-01-29T04:17:08;2.10;99.90
48836;DHT22;62581;47.342;7.908;2023-01-29T04:19:37;2.20;99.90
48836;DHT22;62581;47.342;7.908;2023-01-29T04:22:06;2.20;99.90
48836;DHT22;62581;47.342;7.908;2023-01-29T04:24:37;2.20;99.90
48836;DHT22;62581;47.342;7.908;2023-01-29T04:27:17;2.20;99.90
48836;DHT22;62581;47.342;7.908;2023-01-29T04:29:59;2.10;99.90
48836;DHT22;62581;47.342;7.908;2023-01-29T04:32:40;2.10;99.90
48836;DHT22;62581;47.342;7.908;2023-01-29T04:35:22;2.10;99.90
48836;DHT22;62581;47.342;7.908;2023-01-29T04:38:00;2.10;99.90
48836;DHT22;62581;47.342;7.908;2023-01-29T04:40:36;2.10;99.90
48836;DHT22;62581;47.342;7.908;2023-01-29T04:43:08;2.10;99.90
48836;DHT22;62581;47.342;7.908;2023-01-29T04:45:45;2.10;99.90
48836;DHT22;62581;47.342;7.908;2023-01-29T04:48:20;2.10;99.90
48836;DHT22;62581;47.342;7.908;2023-01-29T04:51:02;2.10;99.90
48836;DHT22;62581;47.342;7.908;2023-01-29T04:53:37;2.10;99.90
48836;DHT22;62581;47.342;7.908;2023-01-29T04:56:15;2.10;99.90
48836;DHT22;62581;47.342;7.908;2023-01-29T04:58:48;2.10;99.90
48836;DHT22;62581;47.342;7.908;2023-01-29T05:01:16;2.20;99.90
48836;DHT22;62581;47.342;7.908;2023-01-29T05:03:49;2.10;99.90
48836;DHT22;62581;47.342;7.908;2023-01-29T05:06:17;2.10;99.90
48836;DHT22;62581;47.342;7.908;2023-01-29T05:08:45;2.10;99.90
48836;DHT22;62581;47.342;7.908;2023-01-29T05:11:13;2.20;99.90
48836;DHT22;62581;47.342;7.908;2023-01-29T05:13:41;2.20;99.90
48836;DHT22;62581;47.342;7.908;2023-01-29T05:16:13;2.10;99.90
48836;DHT22;62581;47.342;7.908;2023-01-29T05:18:41;2.20;99.90
48836;DHT22;62581;47.342;7.908;2023-01-29T05:21:09;2.10;99.90
48836;DHT22;62581;47.342;7.908;2023-01-29T05:23:36;2.10;99.90
48836;DHT22;62581;47.342;7.908;2023-01-29T05:26:04;2.20;99.90
48836;DHT22;62581;47.342;7.908;2023-01-29T05:28:31;2.10;99.90
48836;DHT22;62581;47.342;7.908;2023-01-29T05:30:57;2.20;99.90
48836;DHT22;62581;47.342;7.908;2023-01-29T05:33:25;2.20;99.90
48836;DHT22;62581;47.342;7.908;2023-01-29T05:35:53;2.20;99.90
48836;DHT22;62581;47.342;7.908;2023-01-29T05:38:21;2.10;99.90
48836;DHT22;62581;47.342;7.908;2023-01-29T05:40:48;2.20;99.90
48836;DHT22;62581;47.342;7.908;2023-01-29T05:43:17;2.10;99.90
48836;DHT22;62581;47.342;7.908;2023-01-29T05:45:50;2.20;99.90
48836;DHT22;62581;47.342;7.908;2023-01-29T05:48:17;2.10;99.90
48836;DHT22;62581;47.342;7.908;2023-01-29T05:50:44;2.10;99.90
48836;DHT22;62581;47.342;7.908;2023-01-29T05:53:11;2.10;99.90
48836;DHT22;62581;47.342;7.908;2023-01-29T05:55:43;2.10;99.90
48836;DHT22;62581;47.342;7.908;2023-01-29T05:58:10;2.10;99.90
48836;DHT22;62581;47.342;7.908;2023-01-29T06:00:37;2.20;99.90
48836;DHT22;62581;47.342;7.908;2023-01-29T06:03:04;2.20;99.90
48836;DHT22;62581;47.342;7.908;2023-01-29T06:05:31;2.20;99.90
48836;DHT22;62581;47.342;7.908;2023-01-29T06:07:58;2.10;99.90
48836;DHT22;62581;47.342;7.908;2023-01-29T06:10:25;2.20;99.90
48836;DHT22;62581;47.342;7.908;2023-01-29T06:12:53;2.10;99.90
48836;DHT22;62581;47.342;7.908;2023-01-29T06:15:20;2.10;99.90
48836;DHT22;62581;47.342;7.908;2023-01-29T06:17:47;2.10;99.90
48836;DHT22;62581;47.342;7.908;2023-01-29T06:20:14;2.10;99.90
48836;DHT22;62581;47.342;7.908;2023-01-29T06:22:41;2.10;99.90
48836;DHT22;62581;47.342;7.908;2023-01-29T06:25:08;2.10;99.90
48836;DHT22;62581;47.342;7.908;2023-01-29T06:27:35;2.10;99.90
48836;DHT22;62581;47.342;7.908;2023-01-29T06:30:04;2.10;99.90
48836;DHT22;62581;47.342;7.908;2023-01-29T06:32:32;2.00;99.90
48836;DHT22;62581;47.342;7.908;2023-01-29T06:34:59;2.10;99.90
48836;DHT22;62581;47.342;7.908;2023-01-29T06:37:26;2.10;99.90
48836;DHT22;62581;47.342;7.908;2023-01-29T06:39:53;2.10;99.90
48836;DHT22;62581;47.342;7.908;2023-01-29T06:42:20;2.10;99.90
48836;DHT22;62581;47.342;7.908;2023-01-29T06:44:52;2.10;99.90
48836;DHT22;62581;47.342;7.908;2023-01-29T06:47:20;2.10;99.90
48836;DHT22;62581;47.342;7.908;2023-01-29T06:49:47;2.10;99.90
48836;DHT22;62581;47.342;7.908;2023-01-29T06:52:14;2.10;99.90
48836;DHT22;62581;47.342;7.908;2023-01-29T06:54:41;2.10;99.90
48836;DHT22;62581;47.342;7.908;2023-01-29T06:57:08;2.10;99.90
48836;DHT22;62581;47.342;7.908;2023-01-29T06:59:35;2.10;99.90
48836;DHT22;62581;47.342;7.908;2023-01-29T07:02:02;2.10;99.90
48836;DHT22;62581;47.342;7.908;2023-01-29T07:04:31;2.10;99.90
48836;DHT22;62581;47.342;7.908;2023-01-29T07:06:58;2.10;99.90
48836;DHT22;62581;47.342;7.908;2023-01-29T07:09:25;2.10;99.90
48836;DHT22;62581;47.342;7.908;2023-01-29T07:11:52;2.10;99.90
48836;DHT22;62581;47.342;7.908;2023-01-29T07:14:19;2.10;99.90
48836;DHT22;62581;47.342;7.908;2023-01-29T07:16:46;2.10;99.90
48836;DHT22;62581;47.342;7.908;2023-01-29T07:19:13;2.10;99.90
48836;DHT22;62581;47.342;7.908;2023-01-29T07:21:42;2.10;99.90
48836;DHT22;62581;47.342;7.908;2023-01-29T07:24:09;2.10;99.90
48836;DHT22;62581;47.342;7.908;2023-01-29T07:26:35;2.10;99.90
48836;DHT22;62581;47.342;7.908;2023-01-29T07:29:04;2.10;99.90
48836;DHT22;62581;47.342;7.908;2023-01-29T07:31:31;2.10;99.90
48836;DHT22;62581;47.342;7.908;2023-01-29T07:33:57;2.10;99.90
48836;DHT22;62581;47.342;7.908;2023-01-29T07:36:24;2.20;99.90
48836;DHT22;62581;47.342;7.908;2023-01-29T07:38:53;2.20;99.90
48836;DHT22;62581;47.342;7.908;2023-01-29T07:41:20;2.20;99.90
48836;DHT22;62581;47.342;7.908;2023-01-29T07:43:47;2.30;99.90
48836;DHT22;62581;47.342;7.908;2023-01-29T07:46:14;2.30;99.90
48836;DHT22;62581;47.342;7.908;2023-01-29T07:48:41;2.30;99.90
48836;DHT22;62581;47.342;7.908;2023-01-29T07:51:08;2.30;99.90
48836;DHT22;62581;47.342;7.908;2023-01-29T07:53:35;2.30;99.90
48836;DHT22;62581;47.342;7.908;2023-01-29T07:56:04;2.30;99.90
48836;DHT22;62581;47.342;7.908;2023-01-29T07:58:31;2.40;99.90
48836;DHT22;62581;47.342;7.908;2023-01-29T08:00:58;2.40;99.90
48836;DHT22;62581;47.342;7.908;2023-01-29T08:03:25;2.40;99.90
48836;DHT22;62581;47.342;7.908;2023-01-29T08:05:52;2.40;99.90
48836;DHT22;62581;47.342;7.908;2023-01-29T08:08:19;2.50;99.90
48836;DHT22;62581;47.342;7.908;2023-01-29T08:10:46;2.50;99.90
48836;DHT22;62581;47.342;7.908;2023-01-29T08:13:14;2.50;99.90
48836;DHT22;62581;47.342;7.908;2023-01-29T08:15:42;2.60;99.90
48836;DHT22;62581;47.342;7.908;2023-01-29T08:18:10;2.60;99.90
48836;DHT22;62581;47.342;7.908;2023-01-29T08:20:37;2.60;99.90
48836;DHT22;62581;47.342;7.908;2023-01-29T08:23:07;2.60;99.90
48836;DHT22;62581;47.342;7.908;2023-01-29T08:25:34;2.60;99.90
48836;DHT22;62581;47.342;7.908;2023-01-29T08:28:03;2.70;99.90
48836;DHT22;62581;47.342;7.908;2023-01-29T08:30:33;2.70;99.90
48836;DHT22;62581;47.342;7.908;2023-01-29T08:33:02;2.70;99.90
48836;DHT22;62581;47.342;7.908;2023-01-29T08:35:29;2.80;99.90
48836;DHT22;62581;47.342;7.908;2023-01-29T08:37:57;2.80;99.90
48836;DHT22;62581;47.342;7.908;2023-01-29T08:40:25;2.90;99.90
48836;DHT22;62581;47.342;7.908;2023-01-29T08:42:56;2.90;99.90
48836;DHT22;62581;47.342;7.908;2023-01-29T08:45:23;3.00;99.90
48836;DHT22;62581;47.342;7.908;2023-01-29T08:47:51;3.00;99.90
48836;DHT22;62581;47.342;7.908;2023-01-29T08:50:18;3.00;99.90
48836;DHT22;62581;47.342;7.908;2023-01-29T08:52:45;3.00;99.90
48836;DHT22;62581;47.342;7.908;2023-01-29T08:55:12;3.10;99.90
48836;DHT22;62581;47.342;7.908;2023-01-29T08:57:39;3.10;99.90
48836;DHT22;62581;47.342;7.908;2023-01-29T09:00:08;3.10;99.90
48836;DHT22;62581;47.342;7.908;2023-01-29T09:02:35;3.10;99.90
48836;DHT22;62581;47.342;7.908;2023-01-29T09:05:03;3.10;99.90
48836;DHT22;62581;47.342;7.908;2023-01-29T09:07:31;3.00;99.90
48836;DHT22;62581;47.342;7.908;2023-01-29T09:09:58;3.00;99.90
48836;DHT22;62581;47.342;7.908;2023-01-29T09:12:25;3.00;99.90
48836;DHT22;62581;47.342;7.908;2023-01-29T09:14:52;3.00;99.90
48836;DHT22;62581;47.342;7.908;2023-01-29T09:17:19;3.00;99.90
48836;DHT22;62581;47.342;7.908;2023-01-29T09:19:46;3.10;99.90
48836;DHT22;62581;47.342;7.908;2023-01-29T09:22:14;3.10;99.90
48836;DHT22;62581;47.342;7.908;2023-01-29T09:24:41;3.10;99.90
48836;DHT22;62581;47.342;7.908;2023-01-29T09:27:08;3.10;99.90
48836;DHT22;62581;47.342;7.908;2023-01-29T09:29:35;3.10;99.90
48836;DHT22;62581;47.342;7.908;2023-01-29T09:32:03;3.20;99.90
48836;DHT22;62581;47.342;7.908;2023-01-29T09:34:30;3.30;99.90
48836;DHT22;62581;47.342;7.908;2023-01-29T09:36:57;3.30;99.90
48836;DHT22;62581;47.342;7.908;2023-01-29T09:39:25;3.40;99.90
48836;DHT22;62581;47.342;7.908;2023-01-29T09:41:57;3.50;99.90
48836;DHT22;62581;47.342;7.908;2023-01-29T09:44:34;3.50;99.90
48836;DHT22;62581;47.342;7.908;2023-01-29T09:47:06;3.50;99.90
48836;DHT22;62581;47.342;7.908;2023-01-29T09:49:38;3.60;99.90
48836;DHT22;62581;47.342;7.908;2023-01-29T09:52:13;3.60;99.90
48836;DHT22;62581;47.342;7.908;2023-01-29T09:54:49;3.60;99.90
48836;DHT22;62581;47.342;7.908;2023-01-29T09:57:23;3.60;99.90
48836;DHT22;62581;47.342;7.908;2023-01-29T09:59:51;3.60;99.90
48836;DHT22;62581;47.342;7.908;2023-01-29T10:02:41;3.50;99.90
48836;DHT22;62581;47.342;7.908;2023-01-29T10:05:23;3.40;99.90
48836;DHT22;62581;47.342;7.908;2023-01-29T10:08:12;3.40;99.90
48836;DHT22;62581;47.342;7.908;2023-01-29T10:10:49;3.50;99.90
48836;DHT22;62581;47.342;7.908;2023-01-29T10:13:25;3.60;99.90
48836;DHT22;62581;47.342;7.908;2023-01-29T10:16:03;3.60;99.90
48836;DHT22;62581;47.342;7.908;2023-01-29T10:19:04;3.60;99.90
48836;DHT22;62581;47.342;7.908;2023-01-29T10:22:03;3.60;99.90
48836;DHT22;62581;47.342;7.908;2023-01-29T10:24:36;3.70;99.90
48836;DHT22;62581;47.342;7.908;2023-01-29T10:27:17;3.70;99.90
48836;DHT22;62581;47.342;7.908;2023-01-29T10:29:47;3.80;99.90
48836;DHT22;62581;47.342;7.908;2023-01-29T10:32:17;3.80;99.90
48836;DHT22;62581;47.342;7.908;2023-01-29T10:34:48;3.80;99.90
48836;DHT22;62581;47.342;7.908;2023-01-29T10:37:19;3.80;99.90
48836;DHT22;62581;47.342;7.908;2023-01-29T10:39:49;3.80;99.90
48836;DHT22;62581;47.342;7.908;2023-01-29T10:42:25;3.80;99.90
48836;DHT22;62581;47.342;7.908;2023-01-29T10:45:03;3.80;99.90
48836;DHT22;62581;47.342;7.908;2023-01-29T10:47:47;3.80;99.90
48836;DHT22;62581;47.342;7.908;2023-01-29T10:50:35;3.80;99.90
48836;DHT22;62581;47.342;7.908;2023-01-29T10:56:02;3.90;99.90
48836;DHT22;62581;47.342;7.908;2023-01-29T10:58:38;4.00;99.90
48836;DHT22;62581;47.342;7.908;2023-01-29T11:01:08;4.00;99.90
48836;DHT22;62581;47.342;7.908;2023-01-29T11:03:35;4.10;99.90
48836;DHT22;62581;47.342;7.908;2023-01-29T11:06:09;4.10;99.90
48836;DHT22;62581;47.342;7.908;2023-01-29T11:08:42;4.20;99.90
48836;DHT22;62581;47.342;7.908;2023-01-29T11:11:14;4.30;99.90
48836;DHT22;62581;47.342;7.908;2023-01-29T11:13:47;4.20;99.90
48836;DHT22;62581;47.342;7.908;2023-01-29T11:16:16;4.30;99.90
48836;DHT22;62581;47.342;7.908;2023-01-29T11:18:52;4.30;99.90
48836;DHT22;62581;47.342;7.908;2023-01-29T11:21:19;4.40;99.90
48836;DHT22;62581;47.342;7.908;2023-01-29T11:23:46;4.50;99.90
48836;DHT22;62581;47.342;7.908;2023-01-29T11:26:17;4.40;99.90
48836;DHT22;62581;47.342;7.908;2023-01-29T11:28:49;4.30;99.90
48836;DHT22;62581;47.342;7.908;2023-01-29T11:31:20;4.40;99.90
48836;DHT22;62581;47.342;7.908;2023-01-29T11:33:49;4.40;99.90
48836;DHT22;62581;47.342;7.908;2023-01-29T11:36:29;4.40;99.90
48836;DHT22;62581;47.342;7.908;2023-01-29T11:39:14;4.40;99.90
48836;DHT22;62581;47.342;7.908;2023-01-29T11:41:42;4.40;99.90
48836;DHT22;62581;47.342;7.908;2023-01-29T11:44:26;4.40;99.90
48836;DHT22;62581;47.342;7.908;2023-01-29T11:46:55;4.40;99.90
48836;DHT22;62581;47.342;7.908;2023-01-29T11:49:30;4.50;99.90
48836;DHT22;62581;47.342;7.908;2023-01-29T11:52:00;4.60;99.90
48836;DHT22;62581;47.342;7.908;2023-01-29T11:54:32;4.60;99.90
48836;DHT22;62581;47.342;7.908;2023-01-29T11:57:01;4.60;99.90
48836;DHT22;62581;47.342;7.908;2023-01-29T11:59:37;4.60;99.90
48836;DHT22;62581;47.342;7.908;2023-01-29T12:02:19;4.60;99.90
48836;DHT22;62581;47.342;7.908;2023-01-29T12:04:49;4.70;99.90
48836;DHT22;62581;47.342;7.908;2023-01-29T12:07:18;4.70;99.90
48836;DHT22;62581;47.342;7.908;2023-01-29T12:09:51;4.50;99.90
48836;DHT22;62581;47.342;7.908;2023-01-29T12:12:35;4.50;99.90
48836;DHT22;62581;47.342;7.908;2023-01-29T12:15:18;4.60;99.90
48836;DHT22;62581;47.342;7.908;2023-01-29T12:18:02;4.60;99.90
48836;DHT22;62581;47.342;7.908;2023-01-29T12:20:38;4.60;99.90
48836;DHT22;62581;47.342;7.908;2023-01-29T12:23:20;4.60;99.90
48836;DHT22;62581;47.342;7.908;2023-01-29T12:25:54;4.70;99.90
48836;DHT22;62581;47.342;7.908;2023-01-29T12:31:26;4.60;99.90
48836;DHT22;62581;47.342;7.908;2023-01-29T12:33:59;4.60;99.90
48836;DHT22;62581;47.342;7.908;2023-01-29T12:36:31;4.50;99.90
48836;DHT22;62581;47.342;7.908;2023-01-29T12:39:00;4.60;99.90
48836;DHT22;62581;47.342;7.908;2023-01-29T12:41:36;4.50;99.90
48836;DHT22;62581;47.342;7.908;2023-01-29T12:44:12;4.60;99.90
48836;DHT22;62581;47.342;7.908;2023-01-29T12:46:47;4.60;99.90
48836;DHT22;62581;47.342;7.908;2023-01-29T12:49:21;4.70;99.90
48836;DHT22;62581;47.342;7.908;2023-01-29T12:51:53;4.80;99.90
48836;DHT22;62581;47.342;7.908;2023-01-29T12:54:30;4.80;99.90
48836;DHT22;62581;47.342;7.908;2023-01-29T12:57:01;4.80;99.90
48836;DHT22;62581;47.342;7.908;2023-01-29T12:59:34;4.80;99.90
48836;DHT22;62581;47.342;7.908;2023-01-29T13:02:12;4.80;99.90
48836;DHT22;62581;47.342;7.908;2023-01-29T13:04:44;4.80;99.90
48836;DHT22;62581;47.342;7.908;2023-01-29T13:07:15;4.70;99.90
48836;DHT22;62581;47.342;7.908;2023-01-29T13:09:47;4.70;99.90
48836;DHT22;62581;47.342;7.908;2023-01-29T13:12:18;4.70;99.90
48836;DHT22;62581;47.342;7.908;2023-01-29T13:14:50;4.80;99.90
48836;DHT22;62581;47.342;7.908;2023-01-29T13:17:24;4.80;99.90
48836;DHT22;62581;47.342;7.908;2023-01-29T13:19:53;4.70;99.90
48836;DHT22;62581;47.342;7.908;2023-01-29T13:22:23;4.70;99.90
48836;DHT22;62581;47.342;7.908;2023-01-29T13:24:51;4.70;99.90
48836;DHT22;62581;47.342;7.908;2023-01-29T13:27:24;4.60;99.90
48836;DHT22;62581;47.342;7.908;2023-01-29T13:29:51;4.60;99.90
48836;DHT22;62581;47.342;7.908;2023-01-29T13:32:25;4.60;99.90
48836;DHT22;62581;47.342;7.908;2023-01-29T13:34:54;4.60;99.90
48836;DHT22;62581;47.342;7.908;2023-01-29T13:37:31;4.50;99.90
48836;DHT22;62581;47.342;7.908;2023-01-29T13:40:00;4.40;99.90
48836;DHT22;62581;47.342;7.908;2023-01-29T13:42:39;4.20;99.90
48836;DHT22;62581;47.342;7.908;2023-01-29T13:45:17;4.30;99.90
48836;DHT22;62581;47.342;7.908;2023-01-29T13:47:47;4.30;99.90
48836;DHT22;62581;47.342;7.908;2023-01-29T13:50:19;4.40;99.90
48836;DHT22;62581;47.342;7.908;2023-01-29T13:52:53;4.40;99.90
48836;DHT22;62581;47.342;7.908;2023-01-29T13:55:24;4.50;99.90
48836;DHT22;62581;47.342;7.908;2023-01-29T13:57:56;4.50;99.90
48836;DHT22;62581;47.342;7.908;2023-01-29T14:00:56;4.50;99.90
48836;DHT22;62581;47.342;7.908;2023-01-29T14:03:53;4.60;99.90
48836;DHT22;62581;47.342;7.908;2023-01-29T14:06:42;4.70;99.90
48836;DHT22;62581;47.342;7.908;2023-01-29T14:12:46;4.70;99.90
48836;DHT22;62581;47.342;7.908;2023-01-29T14:15:22;4.50;99.90
48836;DHT22;62581;47.342;7.908;2023-01-29T14:18:04;4.60;99.90
48836;DHT22;62581;47.342;7.908;2023-01-29T14:20:37;4.50;99.90
48836;DHT22;62581;47.342;7.908;2023-01-29T14:23:06;4.40;99.90
48836;DHT22;62581;47.342;7.908;2023-01-29T14:25:36;4.50;99.90
48836;DHT22;62581;47.342;7.908;2023-01-29T14:28:04;4.60;99.90
48836;DHT22;62581;47.342;7.908;2023-01-29T14:30:44;4.60;99.90
48836;DHT22;62581;47.342;7.908;2023-01-29T14:33:25;4.70;99.90
48836;DHT22;62581;47.342;7.908;2023-01-29T14:35:56;4.80;99.90
48836;DHT22;62581;47.342;7.908;2023-01-29T14:38:26;4.90;99.90
48836;DHT22;62581;47.342;7.908;2023-01-29T14:41:03;4.80;99.90
48836;DHT22;62581;47.342;7.908;2023-01-29T14:43:31;4.90;99.90
48836;DHT22;62581;47.342;7.908;2023-01-29T14:48:58;4.90;99.90
48836;DHT22;62581;47.342;7.908;2023-01-29T14:51:31;4.80;99.90
48836;DHT22;62581;47.342;7.908;2023-01-29T14:54:02;4.70;99.90
48836;DHT22;62581;47.342;7.908;2023-01-29T14:56:33;4.60;99.90
48836;DHT22;62581;47.342;7.908;2023-01-29T14:59:12;4.50;99.90
48836;DHT22;62581;47.342;7.908;2023-01-29T15:01:46;4.50;99.90
48836;DHT22;62581;47.342;7.908;2023-01-29T15:04:16;4.60;99.90
48836;DHT22;62581;47.342;7.908;2023-01-29T15:06:46;4.50;99.90
48836;DHT22;62581;47.342;7.908;2023-01-29T15:09:19;4.50;99.90
48836;DHT22;62581;47.342;7.908;2023-01-29T15:11:55;4.60;99.90
48836;DHT22;62581;47.342;7.908;2023-01-29T15:14:28;4.50;99.90
48836;DHT22;62581;47.342;7.908;2023-01-29T15:17:20;4.50;99.90
48836;DHT22;62581;47.342;7.908;2023-01-29T15:19:48;4.40;99.90
48836;DHT22;62581;47.342;7.908;2023-01-29T15:22:18;4.20;99.90
48836;DHT22;62581;47.342;7.908;2023-01-29T15:24:46;4.10;99.90
48836;DHT22;62581;47.342;7.908;2023-01-29T15:27:16;3.90;99.90
48836;DHT22;62581;47.342;7.908;2023-01-29T15:29:49;3.90;99.90
48836;DHT22;62581;47.342;7.908;2023-01-29T15:32:25;3.80;99.90
48836;DHT22;62581;47.342;7.908;2023-01-29T15:34:54;3.80;99.90
48836;DHT22;62581;47.342;7.908;2023-01-29T15:37:28;3.60;99.90
48836;DHT22;62581;47.342;7.908;2023-01-29T15:39:56;3.50;99.90
48836;DHT22;62581;47.342;7.908;2023-01-29T15:42:26;3.40;99.90
48836;DHT22;62581;47.342;7.908;2023-01-29T15:44:54;3.20;99.90
48836;DHT22;62581;47.342;7.908;2023-01-29T15:47:24;3.20;99.90
48836;DHT22;62581;47.342;7.908;2023-01-29T15:49:52;3.10;99.90
48836;DHT22;62581;47.342;7.908;2023-01-29T15:52:27;3.10;99.90
48836;DHT22;62581;47.342;7.908;2023-01-29T15:54:55;3.00;99.90
48836;DHT22;62581;47.342;7.908;2023-01-29T15:57:24;3.00;99.90
48836;DHT22;62581;47.342;7.908;2023-01-29T15:59:53;3.00;99.90
48836;DHT22;62581;47.342;7.908;2023-01-29T16:02:35;2.90;99.90
48836;DHT22;62581;47.342;7.908;2023-01-29T16:05:04;2.90;99.90
48836;DHT22;62581;47.342;7.908;2023-01-29T16:07:35;2.90;99.90
48836;DHT22;62581;47.342;7.908;2023-01-29T16:10:03;3.00;99.90
48836;DHT22;62581;47.342;7.908;2023-01-29T16:12:31;2.90;99.90
48836;DHT22;62581;47.342;7.908;2023-01-29T16:15:01;3.00;99.90
48836;DHT22;62581;47.342;7.908;2023-01-29T16:17:30;2.90;99.90
48836;DHT22;62581;47.342;7.908;2023-01-29T16:20:01;2.90;99.90
48836;DHT22;62581;47.342;7.908;2023-01-29T16:22:31;2.90;99.90
48836;DHT22;62581;47.342;7.908;2023-01-29T16:25:02;2.80;99.90
48836;DHT22;62581;47.342;7.908;2023-01-29T16:27:31;2.80;99.90
48836;DHT22;62581;47.342;7.908;2023-01-29T16:29:59;2.80;99.90